Etusivu
METAR-TAF:

METAR-TAF

Lentoasemat :

Leknesin lentoasema

Leknes, Norja

Leveyspiiri: 68-09N, Pituuspiiri: 013-37E, korkeus merenpinnasta: 2 m

Tämänhetkinen sää

Tämä raportti tehtiin 6 tuntia ja 37 minuuttia sitten, kello 21.20 UTC
Tuuli 4 kn pohjoisesta
Lämpötila -1°C
Kosteus 64%
Ilmanpaine 1010 hPa
Näkyvyys 10 km tai enemmän
Muutamia pilviä 5000 ft:n korkeudessa
Hajanaisia pilviä 9000 ft:n korkeudessa

METAR: ENLK 252120Z 01004KT 9999 FEW050 SCT090 M01/M07 Q1010

Aika: 04:57 (03:57 UTC)


TAF: puuttuu

Säähavainnot ja -ennusteet yli 4000 lentoasemalta (METAR- ja TAF-raportit).

Käytössä olevat sääasemat on merkitty karttaan keltaisilla ja punaisilla pisteillä.

Aseta hiiri pisteen päälle nähdäksesi sääaseman nimen.

Klikkaa sitten nähdäksesi säähavainnot ja -ennusteet.

Kartan vaihtaminen: klikkaa mustalla rastilla varustettuja vihreitä pisteitä, niin voit zoomata sisään; viivalla varustettua vihreää pistettä, niin voit zoomata ulos tai vihreitä nuolia, niin pääset viereisille kartoille.


METAR-TAF: